Delta Virtual Airport Information Service

Auckland Airport

ICAO: NZAA Country: New Zealand
Latitude: -37.008 Longitude: 174.792
Latest Arrival : ANZ1 (4A) (KLAX-NZAA) Latest Departure : ANZ6016 (NZAA-WSSS)


WX CaptureLIVE
Data provided by noaa.gov | Fetched at 00:41:13

METAR : NZAA 120300Z AUTO 22010KT 9999 FEW019/// SCT033/// BKN043/// 18/16 Q1020 NOSIG

TAF : NZAA 112309Z 1200/1300 24010KT 9999 -SHRA SCT020 BKN045 BECMG 1210/1212 13008KT TEMPO 1213/1219 6000 SHRA BKN014


Runway Data for NZAA
Data provided by openaviationdata.com

Runway ID Mag Var Hdg Length Elevation Surface ILS Freq ILS Id ILS Slope
05R 20 50° 11925 ft 23 ft Concrete 110.3 IAA 3
23L 20 230° 11925 ft 23 ft Concrete 109.9 IMG 3

Auckland Airport, New Zealand
Use only for reference purposes



Not for navigational purposes.